Terminal Aerodrome Forecast
Issued by NWS

Home | Current Version | Previous Version | Text Only | Print | Product List | Glossary On
Versions: 1 2 3 4 5 6 7 8 9 10 11 12 13 14 15 16 17 18 19
443
FTUS46 KSGX 050912 AAA
TAFCRQ
TAF AMD
KCRQ 050912Z 0509/0606 VRB05KT P6SM OVC022
     FM051900 23011KT P6SM SCT025
     FM060300 VRB05KT P6SM BKN025=

USA.gov is the U.S. government's official web portal to all federal, state and local government web resources and services.